ARG2570 SAWH-SAEZ
Flight info
| Callsign | ARG2570 |
|---|---|
| Flight time | 2h 53m |
| Altitude | 37000 |
| Route | GRA2A GRA UT662 DIL UZ117 GBE GBE7V |
| Aircraft | B77W/H-SDE1E2E3FGHIJ2J3J4J5M1RWXY/LB1D1 |
Departure
| Time | 2026-05-08 01:11 |
|---|---|
| Airport | Ushuaia - Malvinas Argentinas International Airport (SAWH) |
Arrival
| Time | 2026-05-08 04:04 |
|---|---|
| Airport | Ezeiza International Airport - Ministro Pistarini (SAEZ) |
| Time | Latitude | Longitude | Altitude | Speed | Heading |
|---|---|---|---|---|---|
| 2026-05-08 00:47 | -54.84025 | -68.31179 | 87 ft | 0 kts | 351° |
| 2026-05-08 01:05 | -54.84031 | -68.31177 | 87 ft | 4 kts | 347° |
| 2026-05-08 01:05 | -54.84056 | -68.31165 | 91 ft | 4 kts | 346° |
| 2026-05-08 01:06 | -54.84082 | -68.31154 | 87 ft | 4 kts | 346° |
| 2026-05-08 01:06 | -54.84088 | -68.31152 | 87 ft | 0 kts | 346° |
| 2026-05-08 01:09 | -54.84064 | -68.31223 | 87 ft | 11 kts | 272° |
| 2026-05-08 01:09 | -54.84111 | -68.31319 | 91 ft | 11 kts | 203° |
| 2026-05-08 01:10 | -54.84192 | -68.31329 | 89 ft | 12 kts | 177° |
| 2026-05-08 01:10 | -54.84279 | -68.31319 | 91 ft | 13 kts | 175° |
| 2026-05-08 01:10 | -54.84381 | -68.31249 | 93 ft | 13 kts | 128° |
| 2026-05-08 01:10 | -54.84368 | -68.30450 | 86 ft | 127 kts | 84° |
| 2026-05-08 01:11 | -54.84283 | -68.28328 | 305 ft | 200 kts | 87° |
| 2026-05-08 01:11 | -54.84261 | -68.26106 | 1920 ft | 178 kts | 92° |
| 2026-05-08 01:11 | -54.84409 | -68.24011 | 3209 ft | 173 kts | 99° |
| 2026-05-08 01:11 | -54.84751 | -68.21877 | 3877 ft | 199 kts | 107° |
| 2026-05-08 01:12 | -54.85231 | -68.19369 | 4239 ft | 237 kts | 109° |
| 2026-05-08 01:12 | -54.85763 | -68.16571 | 5187 ft | 249 kts | 109° |
| 2026-05-08 01:12 | -54.86298 | -68.13691 | 6343 ft | 252 kts | 108° |
| 2026-05-08 01:12 | -54.86837 | -68.10739 | 7465 ft | 259 kts | 108° |
| 2026-05-08 01:13 | -54.87382 | -68.07727 | 8555 ft | 265 kts | 108° |
| 2026-05-08 01:13 | -54.87934 | -68.04632 | 9592 ft | 271 kts | 107° |
| 2026-05-08 01:13 | -54.88486 | -68.01514 | 10635 ft | 276 kts | 108° |
| 2026-05-08 01:13 | -54.89051 | -67.98305 | 11739 ft | 280 kts | 108° |
| 2026-05-08 01:14 | -54.89634 | -67.94978 | 12547 ft | 299 kts | 108° |
| 2026-05-08 01:14 | -54.90277 | -67.91312 | 12898 ft | 335 kts | 108° |
| 2026-05-08 01:14 | -54.90873 | -67.87219 | 13110 ft | 365 kts | 96° |
| 2026-05-08 01:14 | -54.90625 | -67.82733 | 13901 ft | 383 kts | 75° |
| 2026-05-08 01:15 | -54.89501 | -67.78490 | 15035 ft | 391 kts | 57° |
| 2026-05-08 01:15 | -54.87639 | -67.75031 | 16209 ft | 397 kts | 37° |
| 2026-05-08 01:15 | -54.85175 | -67.72848 | 17319 ft | 404 kts | 16° |
| 2026-05-08 01:15 | -54.82372 | -67.72403 | 18347 ft | 410 kts | 353° |
| 2026-05-08 01:16 | -54.80529 | -67.73153 | 19012 ft | 412 kts | 339° |
| 2026-05-08 01:16 | -54.77857 | -67.74916 | 19615 ft | 414 kts | 346° |
| 2026-05-08 01:16 | -54.73994 | -67.75219 | 20446 ft | 426 kts | 2° |
| 2026-05-08 01:16 | -54.71016 | -67.75028 | 21365 ft | 431 kts | 2° |
| 2026-05-08 01:17 | -54.68983 | -67.74928 | 22021 ft | 433 kts | 1° |
| 2026-05-08 01:17 | -54.65986 | -67.74827 | 22933 ft | 437 kts | 1° |
| 2026-05-08 01:17 | -54.62925 | -67.74771 | 23759 ft | 443 kts | 1° |
| 2026-05-08 01:17 | -54.59819 | -67.74743 | 24519 ft | 448 kts | 1° |
| 2026-05-08 01:18 | -54.56682 | -67.74733 | 25252 ft | 454 kts | 1° |
| 2026-05-08 01:18 | -54.53497 | -67.74730 | 25923 ft | 460 kts | 1° |
| 2026-05-08 01:18 | -54.50270 | -67.74727 | 26568 ft | 466 kts | 1° |
| 2026-05-08 01:18 | -54.47011 | -67.74725 | 27194 ft | 471 kts | 1° |
| 2026-05-08 01:19 | -54.43708 | -67.74724 | 27814 ft | 476 kts | 1° |
| 2026-05-08 01:19 | -54.40379 | -67.74720 | 28390 ft | 481 kts | 1° |
| 2026-05-08 01:19 | -54.37011 | -67.74715 | 28939 ft | 485 kts | 1° |
| 2026-05-08 01:19 | -54.33658 | -67.74709 | 29408 ft | 491 kts | 1° |
| 2026-05-08 01:20 | -54.30226 | -67.74702 | 29860 ft | 495 kts | 1° |
| 2026-05-08 01:20 | -54.26766 | -67.74696 | 30312 ft | 499 kts | 1° |
| 2026-05-08 01:20 | -54.23287 | -67.74689 | 30769 ft | 501 kts | 1° |
| 2026-05-08 01:20 | -54.19797 | -67.74682 | 31286 ft | 502 kts | 1° |
| 2026-05-08 01:21 | -54.16308 | -67.74675 | 31844 ft | 501 kts | 0° |
| 2026-05-08 01:21 | -54.12820 | -67.74668 | 32386 ft | 500 kts | 0° |
| 2026-05-08 01:21 | -54.09337 | -67.74660 | 32887 ft | 500 kts | 0° |
| 2026-05-08 01:21 | -54.05852 | -67.74652 | 33362 ft | 501 kts | 0° |
| 2026-05-08 01:22 | -54.02955 | -67.74648 | 33752 ft | 501 kts | 0° |
| 2026-05-08 01:22 | -53.99472 | -67.74643 | 34235 ft | 500 kts | 0° |
| 2026-05-08 01:22 | -53.95987 | -67.74637 | 34718 ft | 500 kts | 0° |
| 2026-05-08 01:22 | -53.92513 | -67.74630 | 35160 ft | 500 kts | 0° |
| 2026-05-08 01:23 | -53.89019 | -67.74622 | 35544 ft | 501 kts | 360° |
| 2026-05-08 01:23 | -53.85525 | -67.74616 | 35945 ft | 502 kts | 360° |
| 2026-05-08 01:23 | -53.82074 | -67.74612 | 36345 ft | 502 kts | 360° |
| 2026-05-08 01:23 | -53.78579 | -67.74436 | 36644 ft | 502 kts | 7° |
| 2026-05-08 01:24 | -53.75210 | -67.72893 | 36948 ft | 502 kts | 26° |
| 2026-05-08 01:24 | -53.72202 | -67.70046 | 37488 ft | 493 kts | 31° |
| 2026-05-08 01:24 | -53.69228 | -67.67142 | 37829 ft | 494 kts | 30° |
| 2026-05-08 01:24 | -53.66221 | -67.64274 | 38059 ft | 497 kts | 30° |
| 2026-05-08 01:25 | -53.63225 | -67.61478 | 38334 ft | 499 kts | 29° |
| 2026-05-08 01:25 | -53.60176 | -67.58673 | 38619 ft | 500 kts | 29° |
| 2026-05-08 01:25 | -53.57116 | -67.55881 | 38933 ft | 500 kts | 29° |
| 2026-05-08 01:25 | -53.54040 | -67.53087 | 39174 ft | 502 kts | 28° |
| 2026-05-08 01:26 | -53.50957 | -67.50290 | 39231 ft | 504 kts | 28° |
| 2026-05-08 01:26 | -53.44782 | -67.44695 | 39279 ft | 504 kts | 28° |
| 2026-05-08 01:27 | -53.38608 | -67.39110 | 39291 ft | 503 kts | 28° |
| 2026-05-08 01:27 | -53.32439 | -67.33546 | 39279 ft | 503 kts | 28° |
| 2026-05-08 01:28 | -53.26311 | -67.28033 | 39284 ft | 503 kts | 28° |
| 2026-05-08 01:28 | -53.20138 | -67.22502 | 39279 ft | 503 kts | 28° |
| 2026-05-08 01:29 | -53.13957 | -67.16982 | 39281 ft | 503 kts | 28° |
| 2026-05-08 01:29 | -53.07789 | -67.11492 | 39277 ft | 503 kts | 28° |
| 2026-05-08 01:30 | -53.01616 | -67.06015 | 39267 ft | 503 kts | 28° |
| 2026-05-08 01:30 | -52.95438 | -67.00551 | 39263 ft | 503 kts | 28° |
| 2026-05-08 01:31 | -52.89252 | -66.95095 | 39271 ft | 503 kts | 27° |
| 2026-05-08 01:31 | -52.83097 | -66.89686 | 39257 ft | 503 kts | 27° |
| 2026-05-08 01:32 | -52.76885 | -66.84228 | 39257 ft | 503 kts | 27° |
| 2026-05-08 01:32 | -52.70727 | -66.78818 | 39251 ft | 503 kts | 27° |
| 2026-05-08 01:33 | -52.64539 | -66.73400 | 39249 ft | 503 kts | 27° |
| 2026-05-08 01:33 | -52.58361 | -66.68009 | 39248 ft | 503 kts | 27° |
| 2026-05-08 01:34 | -52.52174 | -66.62630 | 39240 ft | 502 kts | 27° |
| 2026-05-08 01:34 | -52.45991 | -66.57271 | 39239 ft | 502 kts | 27° |
| 2026-05-08 01:35 | -52.39856 | -66.51971 | 39238 ft | 502 kts | 27° |
| 2026-05-08 01:35 | -52.33681 | -66.46653 | 39233 ft | 502 kts | 27° |
| 2026-05-08 01:36 | -52.27493 | -66.41337 | 39229 ft | 501 kts | 27° |
| 2026-05-08 01:36 | -52.21315 | -66.36048 | 39231 ft | 501 kts | 27° |
| 2026-05-08 01:37 | -52.15153 | -66.30791 | 39219 ft | 501 kts | 27° |
| 2026-05-08 01:37 | -52.08986 | -66.25547 | 39225 ft | 500 kts | 27° |
| 2026-05-08 01:38 | -52.02788 | -66.20291 | 39224 ft | 500 kts | 27° |
| 2026-05-08 01:38 | -51.96622 | -66.15080 | 39209 ft | 500 kts | 27° |
| 2026-05-08 01:39 | -51.90464 | -66.09890 | 39209 ft | 500 kts | 27° |
| 2026-05-08 01:39 | -51.84302 | -66.04711 | 39214 ft | 500 kts | 27° |
| 2026-05-08 01:40 | -51.78074 | -65.99621 | 39209 ft | 500 kts | 23° |
| 2026-05-08 01:40 | -51.71567 | -65.95593 | 39208 ft | 499 kts | 19° |
| 2026-05-08 01:41 | -51.65053 | -65.91774 | 39208 ft | 499 kts | 19° |
| 2026-05-08 01:41 | -51.58547 | -65.87931 | 39215 ft | 499 kts | 19° |
| 2026-05-08 01:42 | -51.52067 | -65.84070 | 39222 ft | 499 kts | 19° |
| 2026-05-08 01:42 | -51.45512 | -65.80160 | 39213 ft | 499 kts | 19° |
| 2026-05-08 01:43 | -51.39011 | -65.76295 | 39215 ft | 499 kts | 19° |
| 2026-05-08 01:43 | -51.32492 | -65.72433 | 39210 ft | 498 kts | 19° |
| 2026-05-08 01:44 | -51.26024 | -65.68614 | 39200 ft | 498 kts | 19° |
| 2026-05-08 01:44 | -51.19535 | -65.64793 | 39210 ft | 498 kts | 19° |
| 2026-05-08 01:45 | -51.13010 | -65.60965 | 39193 ft | 498 kts | 19° |
| 2026-05-08 01:45 | -51.06512 | -65.57162 | 39193 ft | 498 kts | 19° |
| 2026-05-08 01:46 | -51.00024 | -65.53375 | 39198 ft | 498 kts | 19° |
| 2026-05-08 01:46 | -50.93514 | -65.49590 | 39182 ft | 498 kts | 19° |
| 2026-05-08 01:47 | -50.87011 | -65.45823 | 39177 ft | 497 kts | 19° |
| 2026-05-08 01:47 | -50.80525 | -65.42078 | 39192 ft | 497 kts | 19° |
| 2026-05-08 01:48 | -50.70807 | -65.36473 | 39174 ft | 497 kts | 18° |
| 2026-05-08 01:48 | -50.64296 | -65.32737 | 39176 ft | 497 kts | 18° |
| 2026-05-08 01:49 | -50.57823 | -65.29034 | 39172 ft | 497 kts | 18° |
| 2026-05-08 01:49 | -50.51327 | -65.25325 | 39165 ft | 497 kts | 18° |
| 2026-05-08 01:50 | -50.44801 | -65.21610 | 39164 ft | 496 kts | 18° |
| 2026-05-08 01:50 | -50.38318 | -65.17932 | 39170 ft | 496 kts | 18° |
| 2026-05-08 01:51 | -50.31795 | -65.14244 | 39164 ft | 496 kts | 18° |
| 2026-05-08 01:51 | -50.25345 | -65.10608 | 39122 ft | 496 kts | 18° |
| 2026-05-08 01:52 | -50.18837 | -65.06955 | 39114 ft | 495 kts | 18° |
| 2026-05-08 01:52 | -50.12399 | -65.03342 | 39110 ft | 494 kts | 18° |
| 2026-05-08 01:53 | -50.05915 | -64.99714 | 39113 ft | 494 kts | 18° |
| 2026-05-08 01:53 | -49.99451 | -64.96112 | 39111 ft | 494 kts | 18° |
| 2026-05-08 01:54 | -49.92994 | -64.92521 | 39110 ft | 494 kts | 18° |
| 2026-05-08 01:54 | -49.86488 | -64.88914 | 39114 ft | 494 kts | 18° |
| 2026-05-08 01:55 | -49.80030 | -64.85345 | 39109 ft | 493 kts | 18° |
| 2026-05-08 01:55 | -49.73610 | -64.81808 | 39105 ft | 493 kts | 18° |
| 2026-05-08 01:56 | -49.67114 | -64.78241 | 39093 ft | 492 kts | 18° |
| 2026-05-08 01:56 | -49.60672 | -64.74710 | 39100 ft | 492 kts | 18° |
| 2026-05-08 01:57 | -49.54241 | -64.71193 | 39099 ft | 492 kts | 18° |
| 2026-05-08 01:57 | -49.47760 | -64.67662 | 39104 ft | 492 kts | 18° |
| 2026-05-08 01:58 | -49.41317 | -64.64161 | 39101 ft | 492 kts | 18° |
| 2026-05-08 01:58 | -49.34890 | -64.60676 | 39097 ft | 492 kts | 18° |
| 2026-05-08 01:59 | -49.28408 | -64.57171 | 39088 ft | 492 kts | 18° |
| 2026-05-08 01:59 | -49.21975 | -64.53710 | 39088 ft | 492 kts | 17° |
| 2026-05-08 02:00 | -49.15521 | -64.50244 | 39093 ft | 492 kts | 17° |
| 2026-05-08 02:00 | -49.09051 | -64.46774 | 39092 ft | 492 kts | 17° |
| 2026-05-08 02:01 | -49.02604 | -64.43327 | 39092 ft | 492 kts | 17° |
| 2026-05-08 02:01 | -48.96135 | -64.39878 | 39084 ft | 492 kts | 17° |
| 2026-05-08 02:02 | -48.90729 | -64.37003 | 39082 ft | 492 kts | 17° |
| 2026-05-08 02:02 | -48.84303 | -64.33596 | 39085 ft | 492 kts | 17° |
| 2026-05-08 02:03 | -48.76731 | -64.29592 | 39083 ft | 492 kts | 17° |
| 2026-05-08 02:03 | -48.71342 | -64.26750 | 39084 ft | 492 kts | 17° |
| 2026-05-08 02:04 | -48.63787 | -64.22777 | 39082 ft | 492 kts | 17° |
| 2026-05-08 02:04 | -48.57307 | -64.19379 | 39073 ft | 492 kts | 17° |
| 2026-05-08 02:05 | -48.51942 | -64.16573 | 39073 ft | 492 kts | 17° |
| 2026-05-08 02:05 | -48.45459 | -64.13191 | 39074 ft | 491 kts | 17° |
| 2026-05-08 02:06 | -48.39031 | -64.09845 | 39074 ft | 491 kts | 17° |
| 2026-05-08 02:06 | -48.32539 | -64.06475 | 39073 ft | 491 kts | 17° |
| 2026-05-08 02:07 | -48.26104 | -64.03142 | 39075 ft | 491 kts | 17° |
| 2026-05-08 02:07 | -48.19636 | -63.99805 | 39063 ft | 491 kts | 17° |
| 2026-05-08 02:08 | -48.13181 | -63.96486 | 39064 ft | 491 kts | 17° |
| 2026-05-08 02:08 | -48.06711 | -63.93166 | 39066 ft | 491 kts | 17° |
| 2026-05-08 02:09 | -48.00229 | -63.89847 | 39065 ft | 491 kts | 17° |
| 2026-05-08 02:09 | -47.93815 | -63.86569 | 39066 ft | 491 kts | 17° |
| 2026-05-08 02:10 | -47.87320 | -63.83258 | 39065 ft | 491 kts | 17° |
| 2026-05-08 02:10 | -47.80850 | -63.79973 | 39059 ft | 491 kts | 17° |
| 2026-05-08 02:11 | -47.74395 | -63.76703 | 39063 ft | 490 kts | 17° |
| 2026-05-08 02:11 | -47.67972 | -63.73458 | 39065 ft | 490 kts | 17° |
| 2026-05-08 02:12 | -47.61474 | -63.70180 | 39064 ft | 490 kts | 17° |
| 2026-05-08 02:12 | -47.55051 | -63.66950 | 39055 ft | 490 kts | 17° |
| 2026-05-08 02:13 | -47.48583 | -63.63706 | 39055 ft | 490 kts | 17° |
| 2026-05-08 02:13 | -47.42139 | -63.60484 | 39056 ft | 490 kts | 17° |
| 2026-05-08 02:14 | -47.35697 | -63.57271 | 39056 ft | 490 kts | 17° |
| 2026-05-08 02:14 | -47.29215 | -63.54045 | 39055 ft | 489 kts | 17° |
| 2026-05-08 02:15 | -47.22767 | -63.50843 | 39055 ft | 490 kts | 17° |
| 2026-05-08 02:15 | -47.16299 | -63.47642 | 39045 ft | 489 kts | 17° |
| 2026-05-08 02:16 | -47.09863 | -63.44465 | 39047 ft | 489 kts | 17° |
| 2026-05-08 02:16 | -47.03410 | -63.41287 | 39045 ft | 489 kts | 17° |
| 2026-05-08 02:17 | -46.96955 | -63.38116 | 38990 ft | 490 kts | 17° |
| 2026-05-08 02:17 | -46.90512 | -63.34958 | 38982 ft | 489 kts | 17° |
| 2026-05-08 02:18 | -46.84072 | -63.31811 | 38982 ft | 489 kts | 16° |
| 2026-05-08 02:18 | -46.77608 | -63.28661 | 38978 ft | 490 kts | 16° |
| 2026-05-08 02:19 | -46.71167 | -63.25530 | 38973 ft | 490 kts | 16° |
| 2026-05-08 02:19 | -46.64715 | -63.22400 | 38972 ft | 489 kts | 16° |
| 2026-05-08 02:20 | -46.58225 | -63.19258 | 38972 ft | 489 kts | 16° |
| 2026-05-08 02:20 | -46.51792 | -63.16153 | 38967 ft | 489 kts | 16° |
| 2026-05-08 02:21 | -46.45316 | -63.13035 | 38963 ft | 489 kts | 16° |
| 2026-05-08 02:21 | -46.38869 | -63.09940 | 38963 ft | 489 kts | 16° |
| 2026-05-08 02:22 | -46.32413 | -63.06846 | 38955 ft | 489 kts | 16° |
| 2026-05-08 02:22 | -46.25982 | -63.03773 | 38955 ft | 488 kts | 16° |
| 2026-05-08 02:23 | -46.19486 | -63.00676 | 38954 ft | 488 kts | 16° |
| 2026-05-08 02:23 | -46.13061 | -62.97621 | 38964 ft | 488 kts | 16° |
| 2026-05-08 02:24 | -46.06601 | -62.94558 | 38974 ft | 487 kts | 16° |
| 2026-05-08 02:24 | -46.00158 | -62.91510 | 38972 ft | 487 kts | 16° |
| 2026-05-08 02:25 | -45.93749 | -62.88486 | 38970 ft | 488 kts | 16° |
| 2026-05-08 02:25 | -45.87306 | -62.85451 | 38965 ft | 488 kts | 16° |
| 2026-05-08 02:26 | -45.80864 | -62.82425 | 38967 ft | 487 kts | 16° |
| 2026-05-08 02:26 | -45.74423 | -62.79405 | 38984 ft | 487 kts | 16° |
| 2026-05-08 02:27 | -45.67990 | -62.76402 | 38977 ft | 487 kts | 16° |
| 2026-05-08 02:27 | -45.61540 | -62.73394 | 38971 ft | 487 kts | 16° |
| 2026-05-08 02:28 | -45.55090 | -62.70393 | 38973 ft | 487 kts | 16° |
| 2026-05-08 02:28 | -45.48679 | -62.67416 | 38974 ft | 487 kts | 16° |
| 2026-05-08 02:29 | -45.42230 | -62.64432 | 38973 ft | 487 kts | 16° |
| 2026-05-08 02:29 | -45.35799 | -62.61465 | 38966 ft | 487 kts | 16° |
| 2026-05-08 02:30 | -45.29337 | -62.58487 | 38962 ft | 487 kts | 15° |
| 2026-05-08 02:30 | -45.22899 | -62.55527 | 38962 ft | 487 kts | 15° |
| 2026-05-08 02:31 | -45.16472 | -62.52579 | 38965 ft | 487 kts | 15° |
| 2026-05-08 02:31 | -45.09983 | -62.49609 | 38963 ft | 487 kts | 15° |
| 2026-05-08 02:32 | -45.03571 | -62.46682 | 38965 ft | 488 kts | 15° |
| 2026-05-08 02:32 | -44.97105 | -62.43742 | 38957 ft | 488 kts | 15° |
| 2026-05-08 02:33 | -44.90635 | -62.40812 | 38954 ft | 488 kts | 15° |
| 2026-05-08 02:33 | -44.84179 | -62.37893 | 38955 ft | 488 kts | 15° |
| 2026-05-08 02:34 | -44.77677 | -62.34959 | 38954 ft | 488 kts | 15° |
| 2026-05-08 02:34 | -44.71235 | -62.32058 | 38956 ft | 488 kts | 15° |
| 2026-05-08 02:35 | -44.64747 | -62.29143 | 38958 ft | 488 kts | 15° |
| 2026-05-08 02:35 | -44.58296 | -62.26253 | 38953 ft | 489 kts | 15° |
| 2026-05-08 02:36 | -44.51826 | -62.23359 | 38944 ft | 488 kts | 15° |
| 2026-05-08 02:36 | -44.45355 | -62.20472 | 38945 ft | 488 kts | 15° |
| 2026-05-08 02:37 | -44.38890 | -62.17594 | 38945 ft | 488 kts | 15° |
| 2026-05-08 02:37 | -44.32411 | -62.14717 | 38942 ft | 488 kts | 15° |
| 2026-05-08 02:38 | -44.25924 | -62.11843 | 38927 ft | 488 kts | 15° |
| 2026-05-08 02:38 | -44.19480 | -62.08995 | 38936 ft | 487 kts | 15° |
| 2026-05-08 02:39 | -44.13022 | -62.06146 | 38933 ft | 487 kts | 15° |
| 2026-05-08 02:39 | -44.06566 | -62.03308 | 38924 ft | 488 kts | 15° |
| 2026-05-08 02:40 | -44.00089 | -62.00464 | 38915 ft | 488 kts | 15° |
| 2026-05-08 02:40 | -43.93598 | -61.97621 | 38846 ft | 488 kts | 15° |
| 2026-05-08 02:41 | -43.87119 | -61.94789 | 38837 ft | 487 kts | 15° |
| 2026-05-08 02:41 | -43.80672 | -61.91979 | 38833 ft | 487 kts | 15° |
| 2026-05-08 02:42 | -43.74208 | -61.89167 | 38832 ft | 487 kts | 15° |
| 2026-05-08 02:42 | -43.67743 | -61.86362 | 38824 ft | 486 kts | 15° |
| 2026-05-08 02:43 | -43.61281 | -61.83563 | 38822 ft | 486 kts | 15° |
| 2026-05-08 02:43 | -43.54863 | -61.80791 | 38817 ft | 485 kts | 15° |
| 2026-05-08 02:44 | -43.48436 | -61.78020 | 38816 ft | 484 kts | 14° |
| 2026-05-08 02:44 | -43.42013 | -61.75257 | 38812 ft | 484 kts | 14° |
| 2026-05-08 02:45 | -43.35590 | -61.72501 | 38803 ft | 483 kts | 14° |
| 2026-05-08 02:45 | -43.29159 | -61.69748 | 38804 ft | 482 kts | 14° |
| 2026-05-08 02:46 | -43.22749 | -61.67008 | 38800 ft | 482 kts | 14° |
| 2026-05-08 02:46 | -43.16376 | -61.64291 | 38812 ft | 481 kts | 14° |
| 2026-05-08 02:47 | -43.09983 | -61.61570 | 38813 ft | 480 kts | 14° |
| 2026-05-08 02:47 | -43.03632 | -61.58873 | 38810 ft | 480 kts | 14° |
| 2026-05-08 02:48 | -42.97271 | -61.56178 | 38803 ft | 479 kts | 14° |
| 2026-05-08 02:48 | -42.90875 | -61.53475 | 38807 ft | 479 kts | 14° |
| 2026-05-08 02:49 | -42.84509 | -61.50789 | 38808 ft | 479 kts | 14° |
| 2026-05-08 02:49 | -42.78118 | -61.48095 | 38796 ft | 479 kts | 14° |
| 2026-05-08 02:50 | -42.71769 | -61.45427 | 38798 ft | 479 kts | 14° |
| 2026-05-08 02:50 | -42.65411 | -61.42760 | 38794 ft | 478 kts | 14° |
| 2026-05-08 02:51 | -42.59067 | -61.40104 | 38797 ft | 479 kts | 14° |
| 2026-05-08 02:51 | -42.52664 | -61.37429 | 38786 ft | 478 kts | 14° |
| 2026-05-08 02:52 | -42.46300 | -61.34776 | 38793 ft | 478 kts | 14° |
| 2026-05-08 02:52 | -42.39972 | -61.32144 | 38782 ft | 478 kts | 14° |
| 2026-05-08 02:53 | -42.33609 | -61.29502 | 38784 ft | 478 kts | 14° |
| 2026-05-08 02:53 | -42.28332 | -61.27317 | 38766 ft | 477 kts | 14° |
| 2026-05-08 02:54 | -42.20914 | -61.24250 | 38781 ft | 477 kts | 14° |
| 2026-05-08 02:54 | -42.15609 | -61.22060 | 38783 ft | 477 kts | 14° |
| 2026-05-08 02:55 | -42.06104 | -61.18149 | 38771 ft | 476 kts | 14° |
| 2026-05-08 02:56 | -41.99797 | -61.15559 | 38774 ft | 475 kts | 14° |
| 2026-05-08 02:56 | -41.93503 | -61.12979 | 38763 ft | 474 kts | 14° |
| 2026-05-08 02:57 | -41.87195 | -61.10402 | 38769 ft | 473 kts | 14° |
| 2026-05-08 02:57 | -41.80884 | -61.07829 | 38766 ft | 472 kts | 14° |
| 2026-05-08 02:58 | -41.74584 | -61.05264 | 38757 ft | 472 kts | 13° |
| 2026-05-08 02:58 | -41.68294 | -61.02708 | 38760 ft | 471 kts | 13° |
| 2026-05-08 02:59 | -41.62068 | -61.00184 | 38761 ft | 470 kts | 13° |
| 2026-05-08 02:59 | -41.55816 | -60.97654 | 38758 ft | 469 kts | 13° |
| 2026-05-08 03:00 | -41.49580 | -60.95137 | 38759 ft | 469 kts | 13° |
| 2026-05-08 03:00 | -41.43289 | -60.92600 | 38758 ft | 468 kts | 13° |
| 2026-05-08 03:01 | -41.37064 | -60.90096 | 38751 ft | 468 kts | 13° |
| 2026-05-08 03:01 | -41.30855 | -60.87606 | 38746 ft | 472 kts | 14° |
| 2026-05-08 03:02 | -41.24534 | -60.85076 | 38754 ft | 474 kts | 14° |
| 2026-05-08 03:02 | -41.18215 | -60.82548 | 38746 ft | 473 kts | 14° |
| 2026-05-08 03:03 | -41.11920 | -60.80036 | 38751 ft | 472 kts | 14° |
| 2026-05-08 03:03 | -41.05616 | -60.77527 | 38748 ft | 472 kts | 14° |
| 2026-05-08 03:04 | -40.99376 | -60.75047 | 38744 ft | 472 kts | 14° |
| 2026-05-08 03:04 | -40.93066 | -60.72544 | 38739 ft | 471 kts | 14° |
| 2026-05-08 03:05 | -40.86801 | -60.70064 | 38739 ft | 471 kts | 14° |
| 2026-05-08 03:05 | -40.80544 | -60.67592 | 38734 ft | 470 kts | 14° |
| 2026-05-08 03:06 | -40.74278 | -60.65121 | 38729 ft | 469 kts | 14° |
| 2026-05-08 03:06 | -40.68033 | -60.62666 | 38730 ft | 469 kts | 14° |
| 2026-05-08 03:07 | -40.61782 | -60.60209 | 38730 ft | 468 kts | 14° |
| 2026-05-08 03:07 | -40.55534 | -60.57758 | 38731 ft | 468 kts | 14° |
| 2026-05-08 03:08 | -40.49295 | -60.55317 | 38731 ft | 467 kts | 14° |
| 2026-05-08 03:08 | -40.43125 | -60.52779 | 38731 ft | 467 kts | 15° |
| 2026-05-08 03:09 | -40.36929 | -60.50118 | 38732 ft | 466 kts | 15° |
| 2026-05-08 03:09 | -40.30767 | -60.47480 | 38721 ft | 465 kts | 15° |
| 2026-05-08 03:10 | -40.24662 | -60.44893 | 38722 ft | 464 kts | 14° |
| 2026-05-08 03:10 | -40.18497 | -60.42293 | 38719 ft | 464 kts | 14° |
| 2026-05-08 03:11 | -40.12379 | -60.39716 | 38721 ft | 463 kts | 14° |
| 2026-05-08 03:11 | -40.06254 | -60.37142 | 38721 ft | 462 kts | 14° |
| 2026-05-08 03:12 | -40.00121 | -60.34572 | 38721 ft | 462 kts | 14° |
| 2026-05-08 03:12 | -39.94035 | -60.32024 | 38722 ft | 462 kts | 14° |
| 2026-05-08 03:13 | -39.87914 | -60.29466 | 38719 ft | 462 kts | 14° |
| 2026-05-08 03:13 | -39.81786 | -60.26910 | 38718 ft | 462 kts | 14° |
| 2026-05-08 03:14 | -39.75669 | -60.24365 | 38711 ft | 462 kts | 14° |
| 2026-05-08 03:14 | -39.69546 | -60.21821 | 38707 ft | 462 kts | 14° |
| 2026-05-08 03:15 | -39.63427 | -60.19284 | 38706 ft | 462 kts | 14° |
| 2026-05-08 03:15 | -39.57301 | -60.16749 | 38710 ft | 463 kts | 14° |
| 2026-05-08 03:16 | -39.51156 | -60.14209 | 38712 ft | 463 kts | 14° |
| 2026-05-08 03:16 | -39.45059 | -60.11694 | 38701 ft | 464 kts | 14° |
| 2026-05-08 03:17 | -39.38900 | -60.09159 | 38703 ft | 464 kts | 14° |
| 2026-05-08 03:17 | -39.32737 | -60.06628 | 38704 ft | 465 kts | 14° |
| 2026-05-08 03:18 | -39.26539 | -60.04087 | 38704 ft | 466 kts | 14° |
| 2026-05-08 03:18 | -39.20363 | -60.01557 | 38691 ft | 466 kts | 14° |
| 2026-05-08 03:19 | -39.14213 | -59.99043 | 38697 ft | 465 kts | 14° |
| 2026-05-08 03:19 | -39.08123 | -59.96554 | 38685 ft | 454 kts | 14° |
| 2026-05-08 03:20 | -39.02090 | -59.94099 | 38686 ft | 455 kts | 14° |
| 2026-05-08 03:20 | -38.96042 | -59.91646 | 38684 ft | 456 kts | 14° |
| 2026-05-08 03:21 | -38.89991 | -59.89192 | 38679 ft | 457 kts | 13° |
| 2026-05-08 03:21 | -38.83932 | -59.86738 | 38673 ft | 457 kts | 13° |
| 2026-05-08 03:22 | -38.77869 | -59.84287 | 38675 ft | 457 kts | 14° |
| 2026-05-08 03:22 | -38.71793 | -59.81835 | 38667 ft | 458 kts | 13° |
| 2026-05-08 03:23 | -38.65710 | -59.79384 | 38675 ft | 458 kts | 13° |
| 2026-05-08 03:23 | -38.59623 | -59.76937 | 38666 ft | 459 kts | 13° |
| 2026-05-08 03:24 | -38.53522 | -59.74488 | 38649 ft | 459 kts | 13° |
| 2026-05-08 03:24 | -38.47424 | -59.72045 | 38656 ft | 460 kts | 14° |
| 2026-05-08 03:25 | -38.41309 | -59.69597 | 38644 ft | 460 kts | 14° |
| 2026-05-08 03:25 | -38.35193 | -59.67154 | 38642 ft | 460 kts | 13° |
| 2026-05-08 03:26 | -38.29076 | -59.64718 | 38645 ft | 461 kts | 13° |
| 2026-05-08 03:26 | -38.22975 | -59.62297 | 38634 ft | 461 kts | 13° |
| 2026-05-08 03:27 | -38.16844 | -59.59871 | 38636 ft | 461 kts | 13° |
| 2026-05-08 03:27 | -38.10711 | -59.57444 | 38626 ft | 461 kts | 13° |
| 2026-05-08 03:28 | -38.04581 | -59.55023 | 38628 ft | 461 kts | 13° |
| 2026-05-08 03:28 | -37.98452 | -59.52608 | 38619 ft | 461 kts | 13° |
| 2026-05-08 03:29 | -37.92332 | -59.50198 | 38619 ft | 461 kts | 13° |
| 2026-05-08 03:29 | -37.86245 | -59.47807 | 38616 ft | 460 kts | 13° |
| 2026-05-08 03:30 | -37.77084 | -59.44216 | 38608 ft | 459 kts | 13° |
| 2026-05-08 03:31 | -37.64895 | -59.39450 | 38610 ft | 457 kts | 13° |
| 2026-05-08 03:32 | -37.55788 | -59.35901 | 38603 ft | 456 kts | 13° |
| 2026-05-08 03:32 | -37.49731 | -59.33545 | 38598 ft | 455 kts | 13° |
| 2026-05-08 03:33 | -37.43682 | -59.31195 | 38603 ft | 454 kts | 13° |
| 2026-05-08 03:33 | -37.37687 | -59.28874 | 38587 ft | 453 kts | 13° |
| 2026-05-08 03:34 | -37.31665 | -59.26540 | 38592 ft | 453 kts | 13° |
| 2026-05-08 03:34 | -37.25651 | -59.24215 | 38590 ft | 452 kts | 13° |
| 2026-05-08 03:35 | -37.19704 | -59.21598 | 38594 ft | 454 kts | 18° |
| 2026-05-08 03:35 | -37.13878 | -59.18493 | 38588 ft | 454 kts | 18° |
| 2026-05-08 03:36 | -37.08105 | -59.15409 | 38592 ft | 454 kts | 18° |
| 2026-05-08 03:36 | -37.02284 | -59.12326 | 38590 ft | 453 kts | 18° |
| 2026-05-08 03:37 | -36.96479 | -59.09269 | 38600 ft | 452 kts | 18° |
| 2026-05-08 03:37 | -36.90666 | -59.06217 | 38601 ft | 452 kts | 18° |
| 2026-05-08 03:38 | -36.84860 | -59.03174 | 38605 ft | 452 kts | 18° |
| 2026-05-08 03:38 | -36.79092 | -59.00153 | 38599 ft | 451 kts | 18° |
| 2026-05-08 03:39 | -36.73285 | -58.97111 | 38597 ft | 451 kts | 18° |
| 2026-05-08 03:39 | -36.67529 | -58.94106 | 38601 ft | 451 kts | 18° |
| 2026-05-08 03:40 | -36.61750 | -58.91092 | 38604 ft | 449 kts | 18° |
| 2026-05-08 03:40 | -36.55985 | -58.88098 | 38617 ft | 450 kts | 18° |
| 2026-05-08 03:41 | -36.50207 | -58.85093 | 38611 ft | 449 kts | 18° |
| 2026-05-08 03:41 | -36.44452 | -58.82105 | 38609 ft | 447 kts | 18° |
| 2026-05-08 03:42 | -36.38751 | -58.79156 | 38616 ft | 446 kts | 18° |
| 2026-05-08 03:42 | -36.33986 | -58.76690 | 38621 ft | 445 kts | 18° |
| 2026-05-08 03:43 | -36.27329 | -58.73252 | 38620 ft | 443 kts | 18° |
| 2026-05-08 03:43 | -36.22585 | -58.70805 | 38617 ft | 443 kts | 18° |
| 2026-05-08 03:44 | -36.16899 | -58.67876 | 38618 ft | 443 kts | 18° |
| 2026-05-08 03:44 | -36.11201 | -58.64946 | 38626 ft | 442 kts | 17° |
| 2026-05-08 03:45 | -36.05526 | -58.62048 | 38625 ft | 440 kts | 17° |
| 2026-05-08 03:45 | -35.99904 | -58.59164 | 38633 ft | 440 kts | 17° |
| 2026-05-08 03:46 | -35.94273 | -58.56277 | 38607 ft | 431 kts | 17° |
| 2026-05-08 03:46 | -35.91536 | -58.54919 | 38418 ft | 417 kts | 14° |
| 2026-05-08 03:46 | -35.88821 | -58.53886 | 37832 ft | 399 kts | 9° |
| 2026-05-08 03:46 | -35.86188 | -58.53220 | 37190 ft | 377 kts | 5° |
| 2026-05-08 03:47 | -35.83583 | -58.52667 | 36204 ft | 387 kts | 5° |
| 2026-05-08 03:47 | -35.80921 | -58.52095 | 35021 ft | 385 kts | 5° |
| 2026-05-08 03:47 | -35.78321 | -58.51524 | 33856 ft | 373 kts | 4° |
| 2026-05-08 03:47 | -35.75818 | -58.50967 | 32691 ft | 357 kts | 4° |
| 2026-05-08 03:48 | -35.73419 | -58.50433 | 31515 ft | 345 kts | 5° |
| 2026-05-08 03:48 | -35.71114 | -58.49923 | 30358 ft | 336 kts | 5° |
| 2026-05-08 03:48 | -35.68843 | -58.49422 | 29191 ft | 329 kts | 6° |
| 2026-05-08 03:48 | -35.66607 | -58.48931 | 28026 ft | 324 kts | 6° |
| 2026-05-08 03:49 | -35.64390 | -58.48445 | 26850 ft | 321 kts | 6° |
| 2026-05-08 03:49 | -35.62203 | -58.47965 | 25676 ft | 317 kts | 6° |
| 2026-05-08 03:49 | -35.60037 | -58.47487 | 24504 ft | 314 kts | 6° |
| 2026-05-08 03:49 | -35.57926 | -58.47021 | 23355 ft | 309 kts | 6° |
| 2026-05-08 03:50 | -35.55813 | -58.46556 | 22179 ft | 309 kts | 7° |
| 2026-05-08 03:50 | -35.53676 | -58.46086 | 21016 ft | 313 kts | 7° |
| 2026-05-08 03:50 | -35.51520 | -58.45618 | 19845 ft | 316 kts | 8° |
| 2026-05-08 03:50 | -35.49343 | -58.45143 | 18673 ft | 319 kts | 9° |
| 2026-05-08 03:51 | -35.47158 | -58.44664 | 17516 ft | 321 kts | 9° |
| 2026-05-08 03:51 | -35.44939 | -58.44176 | 16346 ft | 325 kts | 9° |
| 2026-05-08 03:51 | -35.42748 | -58.43693 | 15191 ft | 324 kts | 9° |
| 2026-05-08 03:51 | -35.40531 | -58.43206 | 14030 ft | 323 kts | 8° |
| 2026-05-08 03:52 | -35.38316 | -58.42719 | 12861 ft | 322 kts | 8° |
| 2026-05-08 03:52 | -35.36110 | -58.42235 | 11693 ft | 321 kts | 7° |
| 2026-05-08 03:52 | -35.33909 | -58.41752 | 10526 ft | 321 kts | 7° |
| 2026-05-08 03:52 | -35.31714 | -58.41273 | 9356 ft | 320 kts | 8° |
| 2026-05-08 03:53 | -35.29523 | -58.40793 | 8192 ft | 320 kts | 8° |
| 2026-05-08 03:53 | -35.27339 | -58.40312 | 7027 ft | 318 kts | 8° |
| 2026-05-08 03:53 | -35.25171 | -58.39841 | 5888 ft | 315 kts | 8° |
| 2026-05-08 03:53 | -35.23036 | -58.39375 | 5096 ft | 308 kts | 7° |
| 2026-05-08 03:54 | -35.20948 | -58.38920 | 4878 ft | 312 kts | 7° |
| 2026-05-08 03:54 | -35.18658 | -58.38426 | 4932 ft | 355 kts | 7° |
| 2026-05-08 03:54 | -35.16171 | -58.37893 | 4929 ft | 369 kts | 7° |
| 2026-05-08 03:54 | -35.13640 | -58.37343 | 4843 ft | 355 kts | 7° |
| 2026-05-08 03:55 | -35.11331 | -58.36826 | 4575 ft | 320 kts | 7° |
| 2026-05-08 03:55 | -35.09244 | -58.36366 | 4375 ft | 291 kts | 6° |
| 2026-05-08 03:55 | -35.07341 | -58.35944 | 4260 ft | 262 kts | 6° |
| 2026-05-08 03:55 | -35.05651 | -58.35570 | 4212 ft | 232 kts | 5° |
| 2026-05-08 03:56 | -35.04116 | -58.35235 | 3915 ft | 217 kts | 4° |
| 2026-05-08 03:56 | -35.02680 | -58.34923 | 3644 ft | 203 kts | 4° |
| 2026-05-08 03:56 | -35.01318 | -58.34630 | 3419 ft | 200 kts | 3° |
| 2026-05-08 03:56 | -34.99938 | -58.34331 | 3224 ft | 200 kts | 3° |
| 2026-05-08 03:57 | -34.98571 | -58.34041 | 3290 ft | 200 kts | 2° |
| 2026-05-08 03:57 | -34.97147 | -58.33739 | 3112 ft | 215 kts | 4° |
| 2026-05-08 03:57 | -34.95661 | -58.33455 | 3064 ft | 217 kts | 1° |
| 2026-05-08 03:57 | -34.94158 | -58.33212 | 2911 ft | 217 kts | 1° |
| 2026-05-08 03:58 | -34.92668 | -58.32974 | 2815 ft | 216 kts | 1° |
| 2026-05-08 03:58 | -34.91181 | -58.32738 | 2725 ft | 213 kts | 1° |
| 2026-05-08 03:58 | -34.89708 | -58.32500 | 2652 ft | 214 kts | 1° |
| 2026-05-08 03:58 | -34.88229 | -58.32271 | 2576 ft | 211 kts | 359° |
| 2026-05-08 03:59 | -34.86905 | -58.32571 | 2483 ft | 185 kts | 324° |
| 2026-05-08 03:59 | -34.86010 | -58.33607 | 2387 ft | 174 kts | 301° |
| 2026-05-08 03:59 | -34.85529 | -58.34926 | 2271 ft | 170 kts | 281° |
| 2026-05-08 03:59 | -34.85271 | -58.36328 | 2153 ft | 165 kts | 279° |
| 2026-05-08 04:00 | -34.85045 | -58.37628 | 2084 ft | 147 kts | 279° |
| 2026-05-08 04:00 | -34.84850 | -58.38741 | 1993 ft | 120 kts | 279° |
| 2026-05-08 04:00 | -34.84686 | -58.39675 | 2008 ft | 113 kts | 278° |
| 2026-05-08 04:00 | -34.84521 | -58.40628 | 1917 ft | 117 kts | 278° |
| 2026-05-08 04:01 | -34.84352 | -58.41590 | 1715 ft | 118 kts | 278° |
| 2026-05-08 04:01 | -34.84180 | -58.42566 | 1564 ft | 118 kts | 278° |
| 2026-05-08 04:01 | -34.84008 | -58.43551 | 1421 ft | 120 kts | 279° |
| 2026-05-08 04:01 | -34.83831 | -58.44552 | 1268 ft | 121 kts | 279° |
| 2026-05-08 04:02 | -34.83654 | -58.45554 | 1122 ft | 120 kts | 279° |
| 2026-05-08 04:02 | -34.83478 | -58.46539 | 1075 ft | 120 kts | 279° |
| 2026-05-08 04:02 | -34.83302 | -58.47532 | 1025 ft | 120 kts | 279° |
| 2026-05-08 04:02 | -34.83127 | -58.48545 | 850 ft | 129 kts | 279° |
| 2026-05-08 04:03 | -34.82948 | -58.49628 | 532 ft | 132 kts | 279° |
| 2026-05-08 04:03 | -34.82570 | -58.51705 | 152 ft | 120 kts | 280° |
| 2026-05-08 04:03 | -34.82391 | -58.52676 | 92 ft | 115 kts | 281° |
| 2026-05-08 04:04 | -34.82226 | -58.53571 | 87 ft | 93 kts | 283° |
| 2026-05-08 04:04 | -34.82121 | -58.54157 | 87 ft | 55 kts | 281° |
| 2026-05-08 04:04 | -34.82051 | -58.54496 | 86 ft | 14 kts | 300° |
| 2026-05-08 04:04 | -34.81960 | -58.54505 | 84 ft | 15 kts | 25° |
| 2026-05-08 04:05 | -34.81868 | -58.54434 | 81 ft | 16 kts | 34° |
| 2026-05-08 04:05 | -34.81784 | -58.54379 | 80 ft | 12 kts | 1° |
| 2026-05-08 04:05 | -34.81703 | -58.54373 | 80 ft | 12 kts | 10° |
| 2026-05-08 04:05 | -34.81654 | -58.54364 | 80 ft | 4 kts | 7° |
| 2026-05-08 04:06 | -34.81644 | -58.54362 | 80 ft | 0 kts | 12° |